sensor_id;sensor_type;location;lat;lon;timestamp;P1;durP1;ratioP1;P2;durP2;ratioP2
29688;SDS011;16600;47.444;8.334;2023-05-13T00:02:00;10.15;;;9.15;;
29688;SDS011;16600;47.444;8.334;2023-05-13T00:06:51;9.93;;;9.02;;
29688;SDS011;16600;47.444;8.334;2023-05-13T00:11:42;11.10;;;9.45;;
29688;SDS011;16600;47.444;8.334;2023-05-13T00:14:08;11.45;;;8.18;;
29688;SDS011;16600;47.444;8.334;2023-05-13T00:16:35;10.02;;;9.02;;
29688;SDS011;16600;47.444;8.334;2023-05-13T00:21:26;10.30;;;8.30;;
29688;SDS011;16600;47.444;8.334;2023-05-13T00:26:17;11.30;;;8.18;;
29688;SDS011;16600;47.444;8.334;2023-05-13T00:28:46;8.32;;;7.57;;
29688;SDS011;16600;47.444;8.334;2023-05-13T00:33:37;10.18;;;7.47;;
29688;SDS011;16600;47.444;8.334;2023-05-13T00:38:28;9.98;;;8.93;;
29688;SDS011;16600;47.444;8.334;2023-05-13T00:43:19;10.10;;;9.10;;
29688;SDS011;16600;47.444;8.334;2023-05-13T00:48:10;9.65;;;8.45;;
29688;SDS011;16600;47.444;8.334;2023-05-13T00:53:01;9.95;;;8.98;;
29688;SDS011;16600;47.444;8.334;2023-05-13T00:55:27;9.60;;;8.60;;
29688;SDS011;16600;47.444;8.334;2023-05-13T01:08:46;9.73;;;8.68;;
29688;SDS011;16600;47.444;8.334;2023-05-13T01:11:28;9.07;;;8.20;;
29688;SDS011;16600;47.444;8.334;2023-05-13T01:13:56;8.48;;;7.68;;
29688;SDS011;16600;47.444;8.334;2023-05-13T01:16:25;12.23;;;8.77;;
29688;SDS011;16600;47.444;8.334;2023-05-13T01:18:57;8.52;;;7.65;;
29688;SDS011;16600;47.444;8.334;2023-05-13T01:21:24;11.75;;;9.02;;
29688;SDS011;16600;47.444;8.334;2023-05-13T01:23:50;8.77;;;7.88;;
29688;SDS011;16600;47.444;8.334;2023-05-13T01:26:17;10.55;;;7.97;;
29688;SDS011;16600;47.444;8.334;2023-05-13T01:28:43;8.00;;;7.30;;
29688;SDS011;16600;47.444;8.334;2023-05-13T01:31:09;7.43;;;6.80;;
29688;SDS011;16600;47.444;8.334;2023-05-13T01:36:00;8.70;;;7.57;;
29688;SDS011;16600;47.444;8.334;2023-05-13T01:38:29;8.55;;;7.80;;
29688;SDS011;16600;47.444;8.334;2023-05-13T01:40:57;8.45;;;6.88;;
29688;SDS011;16600;47.444;8.334;2023-05-13T01:43:23;8.18;;;7.47;;
29688;SDS011;16600;47.444;8.334;2023-05-13T01:48:14;8.30;;;7.50;;
29688;SDS011;16600;47.444;8.334;2023-05-13T01:50:43;8.00;;;7.30;;
29688;SDS011;16600;47.444;8.334;2023-05-13T01:55:35;7.50;;;6.78;;
29688;SDS011;16600;47.444;8.334;2023-05-13T01:58:02;8.50;;;7.80;;
29688;SDS011;16600;47.444;8.334;2023-05-13T02:02:54;9.00;;;6.93;;
29688;SDS011;16600;47.444;8.334;2023-05-13T02:07:45;8.45;;;7.70;;
29688;SDS011;16600;47.444;8.334;2023-05-13T02:12:36;8.35;;;7.55;;
29688;SDS011;16600;47.444;8.334;2023-05-13T02:17:29;7.60;;;6.80;;
29688;SDS011;16600;47.444;8.334;2023-05-13T02:22:20;8.50;;;7.28;;
29688;SDS011;16600;47.444;8.334;2023-05-13T02:27:11;9.27;;;7.75;;
29688;SDS011;16600;47.444;8.334;2023-05-13T02:29:41;7.85;;;7.13;;
29688;SDS011;16600;47.444;8.334;2023-05-13T02:34:31;7.32;;;6.57;;
29688;SDS011;16600;47.444;8.334;2023-05-13T02:39:23;8.18;;;6.45;;
29688;SDS011;16600;47.444;8.334;2023-05-13T02:41:49;7.82;;;7.13;;
29688;SDS011;16600;47.444;8.334;2023-05-13T02:44:15;7.55;;;6.75;;
29688;SDS011;16600;47.444;8.334;2023-05-13T02:46:42;7.63;;;6.88;;
29688;SDS011;16600;47.444;8.334;2023-05-13T02:49:08;10.20;;;7.03;;
29688;SDS011;16600;47.444;8.334;2023-05-13T02:53:59;12.80;;;7.10;;
29688;SDS011;16600;47.444;8.334;2023-05-13T02:56:25;6.53;;;5.90;;
29688;SDS011;16600;47.444;8.334;2023-05-13T03:01:17;9.77;;;7.10;;
29688;SDS011;16600;47.444;8.334;2023-05-13T03:06:07;8.23;;;6.72;;
29688;SDS011;16600;47.444;8.334;2023-05-13T03:10:58;9.27;;;7.03;;
29688;SDS011;16600;47.444;8.334;2023-05-13T03:15:49;7.35;;;6.75;;
29688;SDS011;16600;47.444;8.334;2023-05-13T03:20:40;7.40;;;6.40;;
29688;SDS011;16600;47.444;8.334;2023-05-13T03:25:32;6.45;;;5.93;;
29688;SDS011;16600;47.444;8.334;2023-05-13T03:30:26;6.60;;;6.00;;
29688;SDS011;16600;47.444;8.334;2023-05-13T03:33:00;8.13;;;5.90;;
29688;SDS011;16600;47.444;8.334;2023-05-13T03:35:27;7.72;;;6.05;;
29688;SDS011;16600;47.444;8.334;2023-05-13T03:40:18;7.93;;;6.30;;
29688;SDS011;16600;47.444;8.334;2023-05-13T03:45:10;7.50;;;6.90;;
29688;SDS011;16600;47.444;8.334;2023-05-13T03:47:38;7.90;;;6.13;;
29688;SDS011;16600;47.444;8.334;2023-05-13T03:50:07;6.05;;;5.55;;
29688;SDS011;16600;47.444;8.334;2023-05-13T03:52:39;7.10;;;5.85;;
29688;SDS011;16600;47.444;8.334;2023-05-13T03:57:32;6.35;;;5.75;;
29688;SDS011;16600;47.444;8.334;2023-05-13T04:03:01;5.77;;;5.27;;
29688;SDS011;16600;47.444;8.334;2023-05-13T04:07:52;7.75;;;5.22;;
29688;SDS011;16600;47.444;8.334;2023-05-13T04:12:43;6.18;;;5.57;;
29688;SDS011;16600;47.444;8.334;2023-05-13T04:17:34;6.82;;;6.13;;
29688;SDS011;16600;47.444;8.334;2023-05-13T04:22:24;6.50;;;5.97;;
29688;SDS011;16600;47.444;8.334;2023-05-13T04:27:21;12.05;;;6.40;;
29688;SDS011;16600;47.444;8.334;2023-05-13T04:29:46;9.45;;;5.45;;
29688;SDS011;16600;47.444;8.334;2023-05-13T04:34:49;5.88;;;5.40;;
29688;SDS011;16600;47.444;8.334;2023-05-13T04:37:15;5.63;;;5.15;;
29688;SDS011;16600;47.444;8.334;2023-05-13T04:42:06;7.38;;;5.05;;
29688;SDS011;16600;47.444;8.334;2023-05-13T04:46:57;6.18;;;4.82;;
29688;SDS011;16600;47.444;8.334;2023-05-13T04:51:48;5.85;;;5.00;;
29688;SDS011;16600;47.444;8.334;2023-05-13T04:56:39;7.20;;;5.38;;
29688;SDS011;16600;47.444;8.334;2023-05-13T05:01:31;5.82;;;5.30;;
29688;SDS011;16600;47.444;8.334;2023-05-13T05:06:22;6.85;;;5.03;;
29688;SDS011;16600;47.444;8.334;2023-05-13T05:08:49;6.75;;;6.10;;
29688;SDS011;16600;47.444;8.334;2023-05-13T05:11:15;7.57;;;5.15;;
29688;SDS011;16600;47.444;8.334;2023-05-13T05:16:06;5.57;;;5.07;;
29688;SDS011;16600;47.444;8.334;2023-05-13T05:18:33;5.05;;;4.65;;
29688;SDS011;16600;47.444;8.334;2023-05-13T05:21:01;4.75;;;4.35;;
29688;SDS011;16600;47.444;8.334;2023-05-13T05:23:27;6.15;;;4.85;;
29688;SDS011;16600;47.444;8.334;2023-05-13T05:28:18;6.15;;;5.55;;
29688;SDS011;16600;47.444;8.334;2023-05-13T05:30:44;7.88;;;6.10;;
29688;SDS011;16600;47.444;8.334;2023-05-13T05:33:20;4.78;;;4.35;;
29688;SDS011;16600;47.444;8.334;2023-05-13T05:35:47;5.28;;;4.78;;
29688;SDS011;16600;47.444;8.334;2023-05-13T05:38:15;5.53;;;5.03;;
29688;SDS011;16600;47.444;8.334;2023-05-13T05:43:06;5.40;;;5.00;;
29688;SDS011;16600;47.444;8.334;2023-05-13T05:47:57;9.55;;;5.38;;
29688;SDS011;16600;47.444;8.334;2023-05-13T05:52:48;6.55;;;5.63;;
29688;SDS011;16600;47.444;8.334;2023-05-13T05:55:14;7.68;;;6.90;;
29688;SDS011;16600;47.444;8.334;2023-05-13T06:00:05;10.70;;;6.10;;
29688;SDS011;16600;47.444;8.334;2023-05-13T06:02:40;6.93;;;6.03;;
29688;SDS011;16600;47.444;8.334;2023-05-13T06:05:06;6.05;;;5.55;;
29688;SDS011;16600;47.444;8.334;2023-05-13T06:07:32;8.50;;;7.07;;
29688;SDS011;16600;47.444;8.334;2023-05-13T06:12:23;6.60;;;5.90;;
29688;SDS011;16600;47.444;8.334;2023-05-13T06:17:14;7.05;;;6.43;;
29688;SDS011;16600;47.444;8.334;2023-05-13T06:22:09;7.35;;;6.65;;
29688;SDS011;16600;47.444;8.334;2023-05-13T06:24:35;8.48;;;5.97;;
29688;SDS011;16600;47.444;8.334;2023-05-13T06:29:26;8.50;;;7.68;;
29688;SDS011;16600;47.444;8.334;2023-05-13T06:34:17;6.65;;;6.00;;
29688;SDS011;16600;47.444;8.334;2023-05-13T06:39:08;8.88;;;5.47;;
29688;SDS011;16600;47.444;8.334;2023-05-13T06:41:36;5.40;;;4.75;;
29688;SDS011;16600;47.444;8.334;2023-05-13T06:44:07;7.78;;;6.40;;
29688;SDS011;16600;47.444;8.334;2023-05-13T06:46:37;6.90;;;6.05;;
29688;SDS011;16600;47.444;8.334;2023-05-13T06:51:28;7.35;;;5.70;;
29688;SDS011;16600;47.444;8.334;2023-05-13T06:53:54;6.00;;;5.50;;
29688;SDS011;16600;47.444;8.334;2023-05-13T06:58:48;5.65;;;5.15;;
29688;SDS011;16600;47.444;8.334;2023-05-13T07:03:41;6.32;;;5.68;;
29688;SDS011;16600;47.444;8.334;2023-05-13T07:08:32;6.35;;;5.40;;
29688;SDS011;16600;47.444;8.334;2023-05-13T07:13:22;6.70;;;6.00;;
29688;SDS011;16600;47.444;8.334;2023-05-13T07:15:48;6.30;;;5.70;;
29688;SDS011;16600;47.444;8.334;2023-05-13T07:18:14;6.85;;;6.25;;
29688;SDS011;16600;47.444;8.334;2023-05-13T07:20:40;8.40;;;5.93;;
29688;SDS011;16600;47.444;8.334;2023-05-13T07:25:31;12.40;;;6.72;;
29688;SDS011;16600;47.444;8.334;2023-05-13T07:30:22;7.57;;;6.85;;
29688;SDS011;16600;47.444;8.334;2023-05-13T07:35:13;7.95;;;6.28;;
29688;SDS011;16600;47.444;8.334;2023-05-13T07:37:40;8.40;;;6.05;;
29688;SDS011;16600;47.444;8.334;2023-05-13T07:42:31;6.63;;;6.03;;
29688;SDS011;16600;47.444;8.334;2023-05-13T07:47:22;7.18;;;6.15;;
29688;SDS011;16600;47.444;8.334;2023-05-13T07:49:48;6.35;;;5.53;;
29688;SDS011;16600;47.444;8.334;2023-05-13T07:52:14;6.38;;;5.72;;
29688;SDS011;16600;47.444;8.334;2023-05-13T07:54:39;7.13;;;6.43;;
29688;SDS011;16600;47.444;8.334;2023-05-13T07:57:05;10.20;;;5.90;;
29688;SDS011;16600;47.444;8.334;2023-05-13T07:59:31;6.70;;;6.10;;
29688;SDS011;16600;47.444;8.334;2023-05-13T08:01:56;8.57;;;6.20;;
29688;SDS011;16600;47.444;8.334;2023-05-13T08:04:22;5.22;;;4.82;;
29688;SDS011;16600;47.444;8.334;2023-05-13T08:06:47;6.88;;;6.28;;
29688;SDS011;16600;47.444;8.334;2023-05-13T08:09:13;7.30;;;6.45;;
29688;SDS011;16600;47.444;8.334;2023-05-13T08:11:38;5.80;;;5.22;;
29688;SDS011;16600;47.444;8.334;2023-05-13T08:14:04;8.13;;;6.25;;
29688;SDS011;16600;47.444;8.334;2023-05-13T08:16:29;7.13;;;6.47;;
29688;SDS011;16600;47.444;8.334;2023-05-13T08:18:55;6.45;;;5.93;;
29688;SDS011;16600;47.444;8.334;2023-05-13T08:21:21;8.25;;;6.63;;
29688;SDS011;16600;47.444;8.334;2023-05-13T08:23:48;10.40;;;6.55;;
29688;SDS011;16600;47.444;8.334;2023-05-13T08:26:14;8.25;;;7.25;;
29688;SDS011;16600;47.444;8.334;2023-05-13T08:28:39;7.32;;;6.60;;
29688;SDS011;16600;47.444;8.334;2023-05-13T08:31:05;7.28;;;6.57;;
29688;SDS011;16600;47.444;8.334;2023-05-13T08:33:31;6.85;;;6.25;;
29688;SDS011;16600;47.444;8.334;2023-05-13T08:35:58;7.57;;;6.60;;
29688;SDS011;16600;47.444;8.334;2023-05-13T08:38:23;8.98;;;7.47;;
29688;SDS011;16600;47.444;8.334;2023-05-13T08:40:49;8.07;;;7.03;;
29688;SDS011;16600;47.444;8.334;2023-05-13T08:43:15;8.07;;;6.22;;
29688;SDS011;16600;47.444;8.334;2023-05-13T08:45:41;9.27;;;7.28;;
29688;SDS011;16600;47.444;8.334;2023-05-13T08:48:09;6.93;;;6.22;;
29688;SDS011;16600;47.444;8.334;2023-05-13T08:50:36;6.80;;;6.13;;
29688;SDS011;16600;47.444;8.334;2023-05-13T08:53:02;7.15;;;5.93;;
29688;SDS011;16600;47.444;8.334;2023-05-13T08:55:28;9.98;;;6.43;;
29688;SDS011;16600;47.444;8.334;2023-05-13T08:57:54;6.93;;;6.25;;
29688;SDS011;16600;47.444;8.334;2023-05-13T09:00:20;7.55;;;6.03;;
29688;SDS011;16600;47.444;8.334;2023-05-13T09:02:45;5.68;;;5.18;;
29688;SDS011;16600;47.444;8.334;2023-05-13T09:05:11;8.88;;;6.05;;
29688;SDS011;16600;47.444;8.334;2023-05-13T09:07:37;6.63;;;5.43;;
29688;SDS011;16600;47.444;8.334;2023-05-13T09:10:03;6.28;;;5.30;;
29688;SDS011;16600;47.444;8.334;2023-05-13T09:12:43;7.10;;;5.50;;
29688;SDS011;16600;47.444;8.334;2023-05-13T09:15:09;7.50;;;5.35;;
29688;SDS011;16600;47.444;8.334;2023-05-13T09:17:37;7.10;;;5.60;;
29688;SDS011;16600;47.444;8.334;2023-05-13T09:20:07;6.22;;;5.68;;
29688;SDS011;16600;47.444;8.334;2023-05-13T09:22:33;6.32;;;5.72;;
29688;SDS011;16600;47.444;8.334;2023-05-13T09:24:58;7.25;;;5.40;;
29688;SDS011;16600;47.444;8.334;2023-05-13T09:27:34;5.80;;;5.03;;
29688;SDS011;16600;47.444;8.334;2023-05-13T09:30:00;5.53;;;5.03;;
29688;SDS011;16600;47.444;8.334;2023-05-13T09:32:26;6.60;;;5.72;;
29688;SDS011;16600;47.444;8.334;2023-05-13T09:34:52;6.47;;;5.15;;
29688;SDS011;16600;47.444;8.334;2023-05-13T09:37:17;7.05;;;4.30;;
29688;SDS011;16600;47.444;8.334;2023-05-13T09:39:43;6.07;;;3.70;;
29688;SDS011;16600;47.444;8.334;2023-05-13T09:42:15;5.03;;;3.40;;
29688;SDS011;16600;47.444;8.334;2023-05-13T09:44:44;4.50;;;3.28;;
29688;SDS011;16600;47.444;8.334;2023-05-13T09:47:10;3.83;;;3.25;;
29688;SDS011;16600;47.444;8.334;2023-05-13T09:49:35;3.28;;;2.55;;
29688;SDS011;16600;47.444;8.334;2023-05-13T09:52:01;4.32;;;2.95;;
29688;SDS011;16600;47.444;8.334;2023-05-13T09:54:32;3.50;;;2.75;;
29688;SDS011;16600;47.444;8.334;2023-05-13T09:56:58;2.42;;;2.22;;
29688;SDS011;16600;47.444;8.334;2023-05-13T09:59:26;3.10;;;2.80;;
29688;SDS011;16600;47.444;8.334;2023-05-13T10:03:02;3.00;;;2.78;;
29688;SDS011;16600;47.444;8.334;2023-05-13T10:05:28;3.10;;;2.90;;
29688;SDS011;16600;47.444;8.334;2023-05-13T10:07:54;3.03;;;2.78;;
29688;SDS011;16600;47.444;8.334;2023-05-13T10:10:20;4.28;;;3.88;;
29688;SDS011;16600;47.444;8.334;2023-05-13T10:12:46;3.45;;;3.22;;
29688;SDS011;16600;47.444;8.334;2023-05-13T10:15:11;3.03;;;2.72;;
29688;SDS011;16600;47.444;8.334;2023-05-13T10:17:37;2.47;;;2.22;;
29688;SDS011;16600;47.444;8.334;2023-05-13T10:20:03;7.70;;;3.55;;
29688;SDS011;16600;47.444;8.334;2023-05-13T10:22:30;2.65;;;2.45;;
29688;SDS011;16600;47.444;8.334;2023-05-13T10:24:56;3.50;;;2.50;;
29688;SDS011;16600;47.444;8.334;2023-05-13T10:27:27;3.30;;;3.00;;
29688;SDS011;16600;47.444;8.334;2023-05-13T10:29:54;3.63;;;3.00;;
29688;SDS011;16600;47.444;8.334;2023-05-13T10:32:20;3.38;;;2.75;;
29688;SDS011;16600;47.444;8.334;2023-05-13T10:34:46;3.30;;;3.00;;
29688;SDS011;16600;47.444;8.334;2023-05-13T10:37:21;3.40;;;3.10;;
29688;SDS011;16600;47.444;8.334;2023-05-13T10:40:00;3.60;;;2.90;;
29688;SDS011;16600;47.444;8.334;2023-05-13T10:45:04;3.15;;;2.53;;
29688;SDS011;16600;47.444;8.334;2023-05-13T10:47:34;3.58;;;2.92;;
29688;SDS011;16600;47.444;8.334;2023-05-13T10:49:59;3.80;;;3.28;;
29688;SDS011;16600;47.444;8.334;2023-05-13T10:52:45;4.15;;;2.88;;
29688;SDS011;16600;47.444;8.334;2023-05-13T10:55:17;3.58;;;2.65;;
29688;SDS011;16600;47.444;8.334;2023-05-13T10:58:06;2.88;;;2.55;;
29688;SDS011;16600;47.444;8.334;2023-05-13T11:00:29;3.42;;;3.00;;
29688;SDS011;16600;47.444;8.334;2023-05-13T11:02:55;3.03;;;2.65;;
29688;SDS011;16600;47.444;8.334;2023-05-13T11:05:21;3.58;;;2.70;;
29688;SDS011;16600;47.444;8.334;2023-05-13T11:07:55;3.38;;;2.80;;
29688;SDS011;16600;47.444;8.334;2023-05-13T11:10:27;2.72;;;2.53;;
29688;SDS011;16600;47.444;8.334;2023-05-13T11:13:07;3.05;;;2.78;;
29688;SDS011;16600;47.444;8.334;2023-05-13T11:15:52;4.80;;;3.53;;
29688;SDS011;16600;47.444;8.334;2023-05-13T11:18:18;3.50;;;3.05;;
29688;SDS011;16600;47.444;8.334;2023-05-13T11:20:51;3.40;;;3.15;;
29688;SDS011;16600;47.444;8.334;2023-05-13T11:23:18;3.78;;;3.47;;
29688;SDS011;16600;47.444;8.334;2023-05-13T11:25:44;3.70;;;3.40;;
29688;SDS011;16600;47.444;8.334;2023-05-13T11:28:16;3.17;;;2.80;;
29688;SDS011;16600;47.444;8.334;2023-05-13T11:30:51;6.22;;;3.25;;
29688;SDS011;16600;47.444;8.334;2023-05-13T11:33:17;4.03;;;3.60;;
29688;SDS011;16600;47.444;8.334;2023-05-13T11:35:51;3.88;;;3.47;;
29688;SDS011;16600;47.444;8.334;2023-05-13T11:38:23;3.95;;;3.55;;
29688;SDS011;16600;47.444;8.334;2023-05-13T11:40:49;5.20;;;3.03;;
29688;SDS011;16600;47.444;8.334;2023-05-13T11:43:19;3.95;;;3.28;;
29688;SDS011;16600;47.444;8.334;2023-05-13T11:45:46;3.75;;;3.45;;
29688;SDS011;16600;47.444;8.334;2023-05-13T11:48:21;6.93;;;3.28;;
29688;SDS011;16600;47.444;8.334;2023-05-13T11:50:48;3.47;;;3.17;;
29688;SDS011;16600;47.444;8.334;2023-05-13T11:53:18;4.32;;;3.70;;
29688;SDS011;16600;47.444;8.334;2023-05-13T11:55:44;2.80;;;2.55;;
29688;SDS011;16600;47.444;8.334;2023-05-13T11:58:12;3.30;;;3.00;;
29688;SDS011;16600;47.444;8.334;2023-05-13T12:00:37;4.15;;;2.92;;
29688;SDS011;16600;47.444;8.334;2023-05-13T12:03:08;5.35;;;2.90;;
29688;SDS011;16600;47.444;8.334;2023-05-13T12:05:34;4.28;;;3.60;;
29688;SDS011;16600;47.444;8.334;2023-05-13T12:08:00;4.82;;;3.80;;
29688;SDS011;16600;47.444;8.334;2023-05-13T12:10:26;3.13;;;2.92;;
29688;SDS011;16600;47.444;8.334;2023-05-13T12:12:52;4.07;;;3.13;;
29688;SDS011;16600;47.444;8.334;2023-05-13T12:15:18;3.08;;;2.70;;
29688;SDS011;16600;47.444;8.334;2023-05-13T12:17:45;3.67;;;3.38;;
29688;SDS011;16600;47.444;8.334;2023-05-13T12:22:37;3.50;;;2.80;;
29688;SDS011;16600;47.444;8.334;2023-05-13T12:30:36;4.65;;;3.13;;
29688;SDS011;16600;47.444;8.334;2023-05-13T12:33:02;12.88;;;3.00;;
29688;SDS011;16600;47.444;8.334;2023-05-13T12:35:29;3.28;;;2.90;;
29688;SDS011;16600;47.444;8.334;2023-05-13T12:38:01;3.65;;;3.25;;
29688;SDS011;16600;47.444;8.334;2023-05-13T12:40:27;3.72;;;2.90;;
29688;SDS011;16600;47.444;8.334;2023-05-13T12:43:00;8.93;;;3.53;;
29688;SDS011;16600;47.444;8.334;2023-05-13T12:45:27;3.13;;;2.83;;
29688;SDS011;16600;47.444;8.334;2023-05-13T12:47:56;3.30;;;3.00;;
29688;SDS011;16600;47.444;8.334;2023-05-13T12:50:22;4.07;;;3.38;;
29688;SDS011;16600;47.444;8.334;2023-05-13T12:52:48;2.90;;;2.30;;
29688;SDS011;16600;47.444;8.334;2023-05-13T12:55:14;3.45;;;3.25;;
29688;SDS011;16600;47.444;8.334;2023-05-13T12:57:40;5.35;;;2.45;;
29688;SDS011;16600;47.444;8.334;2023-05-13T13:00:09;3.22;;;2.92;;
29688;SDS011;16600;47.444;8.334;2023-05-13T13:02:35;3.53;;;3.20;;
29688;SDS011;16600;47.444;8.334;2023-05-13T13:05:01;4.53;;;4.10;;
29688;SDS011;16600;47.444;8.334;2023-05-13T13:07:27;5.13;;;3.45;;
29688;SDS011;16600;47.444;8.334;2023-05-13T13:09:52;2.90;;;2.60;;
29688;SDS011;16600;47.444;8.334;2023-05-13T13:12:19;3.75;;;3.20;;
29688;SDS011;16600;47.444;8.334;2023-05-13T13:14:45;5.07;;;4.40;;
29688;SDS011;16600;47.444;8.334;2023-05-13T13:17:11;4.38;;;3.53;;
29688;SDS011;16600;47.444;8.334;2023-05-13T13:19:36;5.25;;;3.83;;
29688;SDS011;16600;47.444;8.334;2023-05-13T13:22:02;3.60;;;3.30;;
29688;SDS011;16600;47.444;8.334;2023-05-13T13:24:28;7.60;;;3.70;;
29688;SDS011;16600;47.444;8.334;2023-05-13T13:26:53;4.18;;;3.13;;
29688;SDS011;16600;47.444;8.334;2023-05-13T13:29:19;7.13;;;4.18;;
29688;SDS011;16600;47.444;8.334;2023-05-13T13:31:45;4.88;;;4.00;;
29688;SDS011;16600;47.444;8.334;2023-05-13T13:34:11;14.30;;;4.05;;
29688;SDS011;16600;47.444;8.334;2023-05-13T13:36:38;4.68;;;3.67;;
29688;SDS011;16600;47.444;8.334;2023-05-13T13:39:03;4.30;;;3.90;;
29688;SDS011;16600;47.444;8.334;2023-05-13T13:41:29;5.75;;;3.90;;
29688;SDS011;16600;47.444;8.334;2023-05-13T13:43:54;4.15;;;3.80;;
29688;SDS011;16600;47.444;8.334;2023-05-13T13:46:20;3.88;;;3.58;;
29688;SDS011;16600;47.444;8.334;2023-05-13T13:48:45;3.47;;;3.15;;
29688;SDS011;16600;47.444;8.334;2023-05-13T13:51:11;5.28;;;2.83;;
29688;SDS011;16600;47.444;8.334;2023-05-13T13:53:36;4.10;;;3.13;;
29688;SDS011;16600;47.444;8.334;2023-05-13T13:56:02;4.13;;;3.83;;
29688;SDS011;16600;47.444;8.334;2023-05-13T13:58:27;5.47;;;4.22;;
29688;SDS011;16600;47.444;8.334;2023-05-13T14:00:52;4.40;;;4.00;;
29688;SDS011;16600;47.444;8.334;2023-05-13T14:03:18;5.25;;;3.60;;
29688;SDS011;16600;47.444;8.334;2023-05-13T14:05:44;4.32;;;3.60;;
29688;SDS011;16600;47.444;8.334;2023-05-13T14:08:10;4.88;;;3.72;;
29688;SDS011;16600;47.444;8.334;2023-05-13T14:10:36;11.05;;;4.43;;
29688;SDS011;16600;47.444;8.334;2023-05-13T14:13:01;6.07;;;4.38;;
29688;SDS011;16600;47.444;8.334;2023-05-13T14:15:27;6.13;;;4.57;;
29688;SDS011;16600;47.444;8.334;2023-05-13T14:17:55;5.03;;;4.45;;
29688;SDS011;16600;47.444;8.334;2023-05-13T14:20:21;5.10;;;3.95;;
29688;SDS011;16600;47.444;8.334;2023-05-13T14:22:49;4.05;;;3.75;;
29688;SDS011;16600;47.444;8.334;2023-05-13T14:25:15;5.40;;;3.90;;
29688;SDS011;16600;47.444;8.334;2023-05-13T14:27:41;4.88;;;4.15;;
29688;SDS011;16600;47.444;8.334;2023-05-13T14:30:07;4.03;;;3.60;;
29688;SDS011;16600;47.444;8.334;2023-05-13T14:32:34;4.10;;;3.70;;
29688;SDS011;16600;47.444;8.334;2023-05-13T14:35:02;4.60;;;4.20;;
29688;SDS011;16600;47.444;8.334;2023-05-13T14:37:27;4.57;;;3.70;;
29688;SDS011;16600;47.444;8.334;2023-05-13T14:39:54;13.23;;;3.95;;
29688;SDS011;16600;47.444;8.334;2023-05-13T14:42:20;4.63;;;4.22;;
29688;SDS011;16600;47.444;8.334;2023-05-13T14:44:45;8.60;;;4.00;;
29688;SDS011;16600;47.444;8.334;2023-05-13T14:47:11;3.28;;;2.97;;
29688;SDS011;16600;47.444;8.334;2023-05-13T14:49:37;3.70;;;3.40;;
29688;SDS011;16600;47.444;8.334;2023-05-13T14:52:02;4.70;;;4.20;;
29688;SDS011;16600;47.444;8.334;2023-05-13T14:54:28;3.88;;;3.58;;
29688;SDS011;16600;47.444;8.334;2023-05-13T14:57:00;3.38;;;3.08;;
29688;SDS011;16600;47.444;8.334;2023-05-13T14:59:26;3.72;;;3.30;;
29688;SDS011;16600;47.444;8.334;2023-05-13T15:01:53;4.22;;;3.45;;
29688;SDS011;16600;47.444;8.334;2023-05-13T15:04:19;5.78;;;4.32;;
29688;SDS011;16600;47.444;8.334;2023-05-13T15:06:45;4.45;;;3.72;;
29688;SDS011;16600;47.444;8.334;2023-05-13T15:09:10;4.38;;;3.78;;
29688;SDS011;16600;47.444;8.334;2023-05-13T15:11:36;4.47;;;4.03;;
29688;SDS011;16600;47.444;8.334;2023-05-13T15:14:03;4.50;;;4.13;;
29688;SDS011;16600;47.444;8.334;2023-05-13T15:16:29;4.68;;;4.15;;
29688;SDS011;16600;47.444;8.334;2023-05-13T15:18:55;5.78;;;4.07;;
29688;SDS011;16600;47.444;8.334;2023-05-13T15:21:21;5.05;;;4.03;;
29688;SDS011;16600;47.444;8.334;2023-05-13T15:23:46;4.93;;;4.43;;
29688;SDS011;16600;47.444;8.334;2023-05-13T15:26:12;7.30;;;4.03;;
29688;SDS011;16600;47.444;8.334;2023-05-13T15:28:37;4.35;;;3.92;;
29688;SDS011;16600;47.444;8.334;2023-05-13T15:31:03;6.40;;;3.90;;
29688;SDS011;16600;47.444;8.334;2023-05-13T15:33:30;6.50;;;4.32;;
29688;SDS011;16600;47.444;8.334;2023-05-13T15:35:57;9.50;;;5.53;;
29688;SDS011;16600;47.444;8.334;2023-05-13T15:38:22;5.13;;;4.72;;
29688;SDS011;16600;47.444;8.334;2023-05-13T15:40:48;10.15;;;5.45;;
29688;SDS011;16600;47.444;8.334;2023-05-13T15:43:14;6.43;;;5.82;;
29688;SDS011;16600;47.444;8.334;2023-05-13T15:45:40;7.10;;;5.70;;
29688;SDS011;16600;47.444;8.334;2023-05-13T15:48:06;5.70;;;5.07;;
29688;SDS011;16600;47.444;8.334;2023-05-13T15:52:57;5.90;;;5.30;;
29688;SDS011;16600;47.444;8.334;2023-05-13T15:57:48;6.40;;;5.55;;
29688;SDS011;16600;47.444;8.334;2023-05-13T16:03:02;6.83;;;6.07;;
29688;SDS011;16600;47.444;8.334;2023-05-13T16:05:27;8.02;;;7.07;;
29688;SDS011;16600;47.444;8.334;2023-05-13T16:07:52;7.65;;;6.85;;
29688;SDS011;16600;47.444;8.334;2023-05-13T16:12:44;10.23;;;5.78;;
29688;SDS011;16600;47.444;8.334;2023-05-13T16:15:09;8.90;;;6.55;;
29688;SDS011;16600;47.444;8.334;2023-05-13T16:17:35;7.13;;;6.47;;
29688;SDS011;16600;47.444;8.334;2023-05-13T16:22:30;8.82;;;6.65;;
29688;SDS011;16600;47.444;8.334;2023-05-13T16:25:03;7.57;;;6.97;;
29688;SDS011;16600;47.444;8.334;2023-05-13T16:27:29;7.35;;;6.05;;
29688;SDS011;16600;47.444;8.334;2023-05-13T16:29:56;6.97;;;6.28;;
29688;SDS011;16600;47.444;8.334;2023-05-13T16:32:22;7.63;;;6.75;;
29688;SDS011;16600;47.444;8.334;2023-05-13T16:37:13;9.25;;;6.82;;
29688;SDS011;16600;47.444;8.334;2023-05-13T16:39:38;8.20;;;7.40;;
29688;SDS011;16600;47.444;8.334;2023-05-13T16:42:04;9.55;;;7.88;;
29688;SDS011;16600;47.444;8.334;2023-05-13T16:44:29;9.57;;;8.15;;
29688;SDS011;16600;47.444;8.334;2023-05-13T16:49:21;8.50;;;7.70;;
29688;SDS011;16600;47.444;8.334;2023-05-13T16:51:47;8.10;;;7.20;;
29688;SDS011;16600;47.444;8.334;2023-05-13T16:56:38;9.43;;;8.45;;
29688;SDS011;16600;47.444;8.334;2023-05-13T17:01:29;9.43;;;8.35;;
29688;SDS011;16600;47.444;8.334;2023-05-13T17:06:20;8.88;;;7.97;;
29688;SDS011;16600;47.444;8.334;2023-05-13T17:11:11;12.68;;;8.65;;
29688;SDS011;16600;47.444;8.334;2023-05-13T17:13:41;10.32;;;7.88;;
29688;SDS011;16600;47.444;8.334;2023-05-13T17:16:06;8.70;;;7.88;;
29688;SDS011;16600;47.444;8.334;2023-05-13T17:20:57;8.93;;;7.97;;
29688;SDS011;16600;47.444;8.334;2023-05-13T17:23:27;9.65;;;8.65;;
29688;SDS011;16600;47.444;8.334;2023-05-13T17:28:18;9.05;;;8.18;;
29688;SDS011;16600;47.444;8.334;2023-05-13T17:33:09;9.70;;;8.70;;
29688;SDS011;16600;47.444;8.334;2023-05-13T17:38:03;9.32;;;8.38;;
29688;SDS011;16600;47.444;8.334;2023-05-13T17:42:54;8.30;;;7.53;;
29688;SDS011;16600;47.444;8.334;2023-05-13T17:47:46;9.38;;;8.43;;
29688;SDS011;16600;47.444;8.334;2023-05-13T17:52:42;9.50;;;8.55;;
29688;SDS011;16600;47.444;8.334;2023-05-13T17:55:07;10.23;;;8.70;;
29688;SDS011;16600;47.444;8.334;2023-05-13T17:59:58;10.50;;;9.23;;
29688;SDS011;16600;47.444;8.334;2023-05-13T18:04:49;9.88;;;8.88;;
29688;SDS011;16600;47.444;8.334;2023-05-13T18:07:16;9.65;;;8.52;;
29688;SDS011;16600;47.444;8.334;2023-05-13T18:09:43;9.50;;;8.60;;
29688;SDS011;16600;47.444;8.334;2023-05-13T18:14:34;8.88;;;8.07;;
29688;SDS011;16600;47.444;8.334;2023-05-13T18:19:25;10.40;;;8.45;;
29688;SDS011;16600;47.444;8.334;2023-05-13T18:24:19;8.90;;;8.07;;
29688;SDS011;16600;47.444;8.334;2023-05-13T18:26:45;10.63;;;9.63;;
29688;SDS011;16600;47.444;8.334;2023-05-13T18:31:36;10.60;;;9.50;;
29688;SDS011;16600;47.444;8.334;2023-05-13T18:36:27;10.05;;;8.90;;
29688;SDS011;16600;47.444;8.334;2023-05-13T18:41:18;10.02;;;8.90;;
29688;SDS011;16600;47.444;8.334;2023-05-13T18:46:08;9.55;;;8.75;;
29688;SDS011;16600;47.444;8.334;2023-05-13T18:50:59;10.38;;;9.27;;
29688;SDS011;16600;47.444;8.334;2023-05-13T18:55:51;10.65;;;9.60;;
29688;SDS011;16600;47.444;8.334;2023-05-13T19:00:42;10.35;;;9.35;;